sensor_id;sensor_type;location;lat;lon;timestamp;P1;durP1;ratioP1;P2;durP2;ratioP2
18455;SDS011;9357;49.900;8.208;2024-02-14T00:00:20;5.70;;;1.65;;
18455;SDS011;9357;49.900;8.208;2024-02-14T00:01:52;2.75;;;1.70;;
18455;SDS011;9357;49.900;8.208;2024-02-14T00:03:25;1.75;;;1.27;;
18455;SDS011;9357;49.900;8.208;2024-02-14T00:04:57;2.13;;;1.40;;
18455;SDS011;9357;49.900;8.208;2024-02-14T00:06:35;4.28;;;1.50;;
18455;SDS011;9357;49.900;8.208;2024-02-14T00:08:07;2.28;;;1.40;;
18455;SDS011;9357;49.900;8.208;2024-02-14T00:09:40;3.33;;;1.65;;
18455;SDS011;9357;49.900;8.208;2024-02-14T00:11:12;3.63;;;1.58;;
18455;SDS011;9357;49.900;8.208;2024-02-14T00:12:46;2.15;;;1.40;;
18455;SDS011;9357;49.900;8.208;2024-02-14T00:14:19;4.15;;;1.30;;
18455;SDS011;9357;49.900;8.208;2024-02-14T00:15:52;2.85;;;1.50;;
18455;SDS011;9357;49.900;8.208;2024-02-14T00:17:23;2.72;;;1.20;;
18455;SDS011;9357;49.900;8.208;2024-02-14T00:18:56;1.92;;;1.30;;
18455;SDS011;9357;49.900;8.208;2024-02-14T00:20:28;2.08;;;1.30;;
18455;SDS011;9357;49.900;8.208;2024-02-14T00:22:03;2.53;;;1.40;;
18455;SDS011;9357;49.900;8.208;2024-02-14T00:23:35;3.13;;;1.42;;
18455;SDS011;9357;49.900;8.208;2024-02-14T00:25:08;3.33;;;1.20;;
18455;SDS011;9357;49.900;8.208;2024-02-14T00:26:40;2.05;;;1.45;;
18455;SDS011;9357;49.900;8.208;2024-02-14T00:28:13;2.97;;;1.60;;
18455;SDS011;9357;49.900;8.208;2024-02-14T00:29:46;2.58;;;1.30;;
18455;SDS011;9357;49.900;8.208;2024-02-14T00:31:18;2.45;;;1.45;;
18455;SDS011;9357;49.900;8.208;2024-02-14T00:32:52;3.75;;;1.40;;
18455;SDS011;9357;49.900;8.208;2024-02-14T00:34:24;3.15;;;1.48;;
18455;SDS011;9357;49.900;8.208;2024-02-14T00:35:56;2.42;;;1.45;;
18455;SDS011;9357;49.900;8.208;2024-02-14T00:37:31;2.65;;;1.48;;
18455;SDS011;9357;49.900;8.208;2024-02-14T00:39:04;4.10;;;1.67;;
18455;SDS011;9357;49.900;8.208;2024-02-14T00:40:40;3.70;;;1.50;;
18455;SDS011;9357;49.900;8.208;2024-02-14T00:42:11;1.67;;;1.48;;
18455;SDS011;9357;49.900;8.208;2024-02-14T00:43:44;3.33;;;1.48;;
18455;SDS011;9357;49.900;8.208;2024-02-14T00:45:16;1.83;;;1.45;;
18455;SDS011;9357;49.900;8.208;2024-02-14T00:46:49;3.00;;;1.67;;
18455;SDS011;9357;49.900;8.208;2024-02-14T00:48:21;2.47;;;1.55;;
18455;SDS011;9357;49.900;8.208;2024-02-14T00:49:54;1.60;;;1.40;;
18455;SDS011;9357;49.900;8.208;2024-02-14T00:51:26;3.10;;;1.50;;
18455;SDS011;9357;49.900;8.208;2024-02-14T00:53:00;4.03;;;1.75;;
18455;SDS011;9357;49.900;8.208;2024-02-14T00:54:32;1.92;;;1.60;;
18455;SDS011;9357;49.900;8.208;2024-02-14T00:56:05;2.67;;;1.40;;
18455;SDS011;9357;49.900;8.208;2024-02-14T00:57:37;2.63;;;1.40;;
18455;SDS011;9357;49.900;8.208;2024-02-14T00:59:10;2.13;;;1.30;;
18455;SDS011;9357;49.900;8.208;2024-02-14T01:00:42;2.20;;;1.35;;
18455;SDS011;9357;49.900;8.208;2024-02-14T01:02:15;2.67;;;1.30;;
18455;SDS011;9357;49.900;8.208;2024-02-14T01:03:46;2.53;;;1.50;;
18455;SDS011;9357;49.900;8.208;2024-02-14T01:05:19;3.83;;;1.52;;
18455;SDS011;9357;49.900;8.208;2024-02-14T01:06:51;2.85;;;1.60;;
18455;SDS011;9357;49.900;8.208;2024-02-14T01:08:25;2.75;;;1.63;;
18455;SDS011;9357;49.900;8.208;2024-02-14T01:09:57;2.47;;;1.50;;
18455;SDS011;9357;49.900;8.208;2024-02-14T01:11:30;3.28;;;1.60;;
18455;SDS011;9357;49.900;8.208;2024-02-14T01:13:02;3.58;;;1.80;;
18455;SDS011;9357;49.900;8.208;2024-02-14T01:14:36;2.92;;;1.60;;
18455;SDS011;9357;49.900;8.208;2024-02-14T01:16:08;3.75;;;1.52;;
18455;SDS011;9357;49.900;8.208;2024-02-14T01:17:41;2.95;;;1.58;;
18455;SDS011;9357;49.900;8.208;2024-02-14T01:19:14;2.15;;;1.60;;
18455;SDS011;9357;49.900;8.208;2024-02-14T01:20:47;2.42;;;1.60;;
18455;SDS011;9357;49.900;8.208;2024-02-14T01:22:19;2.83;;;1.70;;
18455;SDS011;9357;49.900;8.208;2024-02-14T01:23:54;2.53;;;1.58;;
18455;SDS011;9357;49.900;8.208;2024-02-14T01:25:26;2.97;;;1.65;;
18455;SDS011;9357;49.900;8.208;2024-02-14T01:26:59;1.98;;;1.55;;
18455;SDS011;9357;49.900;8.208;2024-02-14T01:28:31;1.80;;;1.65;;
18455;SDS011;9357;49.900;8.208;2024-02-14T01:30:05;2.15;;;1.50;;
18455;SDS011;9357;49.900;8.208;2024-02-14T01:31:37;4.07;;;1.70;;
18455;SDS011;9357;49.900;8.208;2024-02-14T01:33:10;5.57;;;1.90;;
18455;SDS011;9357;49.900;8.208;2024-02-14T01:34:42;3.95;;;1.90;;
18455;SDS011;9357;49.900;8.208;2024-02-14T01:36:15;2.05;;;1.85;;
18455;SDS011;9357;49.900;8.208;2024-02-14T01:37:47;2.13;;;1.73;;
18455;SDS011;9357;49.900;8.208;2024-02-14T01:39:21;4.43;;;2.15;;
18455;SDS011;9357;49.900;8.208;2024-02-14T01:40:53;3.50;;;1.70;;
18455;SDS011;9357;49.900;8.208;2024-02-14T01:42:26;3.55;;;2.10;;
18455;SDS011;9357;49.900;8.208;2024-02-14T01:43:58;3.03;;;1.77;;
18455;SDS011;9357;49.900;8.208;2024-02-14T01:45:32;4.38;;;2.22;;
18455;SDS011;9357;49.900;8.208;2024-02-14T01:47:04;4.43;;;1.83;;
18455;SDS011;9357;49.900;8.208;2024-02-14T01:48:37;4.93;;;1.67;;
18455;SDS011;9357;49.900;8.208;2024-02-14T01:50:11;3.30;;;1.80;;
18455;SDS011;9357;49.900;8.208;2024-02-14T01:51:44;3.50;;;1.65;;
18455;SDS011;9357;49.900;8.208;2024-02-14T01:53:18;9.43;;;2.17;;
18455;SDS011;9357;49.900;8.208;2024-02-14T01:54:52;4.90;;;1.77;;
18455;SDS011;9357;49.900;8.208;2024-02-14T01:56:27;2.15;;;1.75;;
18455;SDS011;9357;49.900;8.208;2024-02-14T01:57:59;3.38;;;1.98;;
18455;SDS011;9357;49.900;8.208;2024-02-14T01:59:34;4.05;;;2.20;;
18455;SDS011;9357;49.900;8.208;2024-02-14T02:01:06;3.35;;;1.83;;
18455;SDS011;9357;49.900;8.208;2024-02-14T02:02:41;2.92;;;1.85;;
18455;SDS011;9357;49.900;8.208;2024-02-14T02:04:13;2.03;;;1.83;;
18455;SDS011;9357;49.900;8.208;2024-02-14T02:05:46;3.35;;;1.80;;
18455;SDS011;9357;49.900;8.208;2024-02-14T02:07:29;2.88;;;1.83;;
18455;SDS011;9357;49.900;8.208;2024-02-14T02:09:03;6.38;;;2.10;;
18455;SDS011;9357;49.900;8.208;2024-02-14T02:10:37;2.83;;;2.00;;
18455;SDS011;9357;49.900;8.208;2024-02-14T02:12:10;4.07;;;1.70;;
18455;SDS011;9357;49.900;8.208;2024-02-14T02:13:42;6.97;;;2.10;;
18455;SDS011;9357;49.900;8.208;2024-02-14T02:15:15;4.53;;;2.08;;
18455;SDS011;9357;49.900;8.208;2024-02-14T02:16:47;4.65;;;2.13;;
18455;SDS011;9357;49.900;8.208;2024-02-14T02:18:20;4.82;;;1.90;;
18455;SDS011;9357;49.900;8.208;2024-02-14T02:19:53;4.15;;;2.00;;
18455;SDS011;9357;49.900;8.208;2024-02-14T02:21:26;3.13;;;1.90;;
18455;SDS011;9357;49.900;8.208;2024-02-14T02:22:59;3.63;;;1.88;;
18455;SDS011;9357;49.900;8.208;2024-02-14T02:24:33;4.88;;;1.83;;
18455;SDS011;9357;49.900;8.208;2024-02-14T02:26:05;3.72;;;1.98;;
18455;SDS011;9357;49.900;8.208;2024-02-14T02:27:38;4.97;;;2.10;;
18455;SDS011;9357;49.900;8.208;2024-02-14T02:29:11;3.13;;;1.90;;
18455;SDS011;9357;49.900;8.208;2024-02-14T02:30:43;4.50;;;2.05;;
18455;SDS011;9357;49.900;8.208;2024-02-14T02:32:17;3.05;;;2.00;;
18455;SDS011;9357;49.900;8.208;2024-02-14T02:33:49;2.53;;;1.90;;
18455;SDS011;9357;49.900;8.208;2024-02-14T02:35:22;5.22;;;2.17;;
18455;SDS011;9357;49.900;8.208;2024-02-14T02:36:55;3.83;;;1.90;;
18455;SDS011;9357;49.900;8.208;2024-02-14T02:38:30;2.03;;;1.70;;
18455;SDS011;9357;49.900;8.208;2024-02-14T02:40:02;2.97;;;2.30;;
18455;SDS011;9357;49.900;8.208;2024-02-14T02:41:36;3.70;;;1.95;;
18455;SDS011;9357;49.900;8.208;2024-02-14T02:43:08;4.15;;;1.98;;
18455;SDS011;9357;49.900;8.208;2024-02-14T02:44:42;3.25;;;1.90;;
18455;SDS011;9357;49.900;8.208;2024-02-14T02:46:13;4.35;;;1.83;;
18455;SDS011;9357;49.900;8.208;2024-02-14T02:47:46;4.22;;;2.20;;
18455;SDS011;9357;49.900;8.208;2024-02-14T02:49:19;2.95;;;2.05;;
18455;SDS011;9357;49.900;8.208;2024-02-14T02:50:52;3.22;;;1.92;;
18455;SDS011;9357;49.900;8.208;2024-02-14T02:52:24;4.10;;;1.85;;
18455;SDS011;9357;49.900;8.208;2024-02-14T02:53:59;3.03;;;2.13;;
18455;SDS011;9357;49.900;8.208;2024-02-14T02:55:33;2.45;;;2.25;;
18455;SDS011;9357;49.900;8.208;2024-02-14T02:57:08;4.63;;;2.45;;
18455;SDS011;9357;49.900;8.208;2024-02-14T02:58:41;5.07;;;2.33;;
18455;SDS011;9357;49.900;8.208;2024-02-14T03:00:13;4.05;;;2.15;;
18455;SDS011;9357;49.900;8.208;2024-02-14T03:01:47;5.63;;;2.63;;
18455;SDS011;9357;49.900;8.208;2024-02-14T03:03:20;5.65;;;2.80;;
18455;SDS011;9357;49.900;8.208;2024-02-14T03:04:56;4.72;;;3.15;;
18455;SDS011;9357;49.900;8.208;2024-02-14T03:06:28;5.28;;;3.08;;
18455;SDS011;9357;49.900;8.208;2024-02-14T03:08:00;5.47;;;3.20;;
18455;SDS011;9357;49.900;8.208;2024-02-14T03:09:34;5.13;;;3.40;;
18455;SDS011;9357;49.900;8.208;2024-02-14T03:11:07;5.00;;;3.75;;
18455;SDS011;9357;49.900;8.208;2024-02-14T03:12:39;7.85;;;4.03;;
18455;SDS011;9357;49.900;8.208;2024-02-14T03:14:11;5.63;;;3.65;;
18455;SDS011;9357;49.900;8.208;2024-02-14T03:15:44;4.82;;;3.63;;
18455;SDS011;9357;49.900;8.208;2024-02-14T03:17:17;5.40;;;3.53;;
18455;SDS011;9357;49.900;8.208;2024-02-14T03:18:49;5.53;;;3.08;;
18455;SDS011;9357;49.900;8.208;2024-02-14T03:20:23;5.80;;;3.35;;
18455;SDS011;9357;49.900;8.208;2024-02-14T03:21:55;5.00;;;2.70;;
18455;SDS011;9357;49.900;8.208;2024-02-14T03:23:28;4.20;;;2.30;;
18455;SDS011;9357;49.900;8.208;2024-02-14T03:25:01;8.10;;;2.63;;
18455;SDS011;9357;49.900;8.208;2024-02-14T03:26:34;4.00;;;2.50;;
18455;SDS011;9357;49.900;8.208;2024-02-14T03:28:06;4.80;;;2.75;;
18455;SDS011;9357;49.900;8.208;2024-02-14T03:29:40;4.22;;;2.63;;
18455;SDS011;9357;49.900;8.208;2024-02-14T03:31:12;4.55;;;2.70;;
18455;SDS011;9357;49.900;8.208;2024-02-14T03:32:46;6.38;;;2.30;;
18455;SDS011;9357;49.900;8.208;2024-02-14T03:34:19;4.55;;;2.50;;
18455;SDS011;9357;49.900;8.208;2024-02-14T03:35:52;3.70;;;2.47;;
18455;SDS011;9357;49.900;8.208;2024-02-14T03:37:25;4.15;;;2.60;;
18455;SDS011;9357;49.900;8.208;2024-02-14T03:38:58;5.88;;;2.55;;
18455;SDS011;9357;49.900;8.208;2024-02-14T03:40:36;3.60;;;2.53;;
18455;SDS011;9357;49.900;8.208;2024-02-14T03:42:09;5.00;;;2.20;;
18455;SDS011;9357;49.900;8.208;2024-02-14T03:43:41;6.88;;;2.45;;
18455;SDS011;9357;49.900;8.208;2024-02-14T03:45:14;4.68;;;2.35;;
18455;SDS011;9357;49.900;8.208;2024-02-14T03:46:46;4.45;;;2.28;;
18455;SDS011;9357;49.900;8.208;2024-02-14T03:48:19;4.18;;;2.28;;
18455;SDS011;9357;49.900;8.208;2024-02-14T03:49:51;2.97;;;2.13;;
18455;SDS011;9357;49.900;8.208;2024-02-14T03:51:24;4.13;;;2.22;;
18455;SDS011;9357;49.900;8.208;2024-02-14T03:52:56;4.88;;;2.08;;
18455;SDS011;9357;49.900;8.208;2024-02-14T03:54:29;3.85;;;2.35;;
18455;SDS011;9357;49.900;8.208;2024-02-14T03:56:02;3.38;;;2.72;;
18455;SDS011;9357;49.900;8.208;2024-02-14T03:57:35;3.60;;;2.80;;
18455;SDS011;9357;49.900;8.208;2024-02-14T03:59:10;6.60;;;3.22;;
18455;SDS011;9357;49.900;8.208;2024-02-14T04:00:43;4.65;;;3.15;;
18455;SDS011;9357;49.900;8.208;2024-02-14T04:02:15;5.15;;;3.50;;
18455;SDS011;9357;49.900;8.208;2024-02-14T04:03:48;3.75;;;3.22;;
18455;SDS011;9357;49.900;8.208;2024-02-14T04:05:20;5.35;;;3.30;;
18455;SDS011;9357;49.900;8.208;2024-02-14T04:06:54;6.00;;;3.50;;
18455;SDS011;9357;49.900;8.208;2024-02-14T04:08:25;5.65;;;3.60;;
18455;SDS011;9357;49.900;8.208;2024-02-14T04:10:00;6.30;;;3.50;;
18455;SDS011;9357;49.900;8.208;2024-02-14T04:11:34;4.55;;;3.10;;
18455;SDS011;9357;49.900;8.208;2024-02-14T04:13:07;5.45;;;2.72;;
18455;SDS011;9357;49.900;8.208;2024-02-14T04:14:41;5.72;;;3.33;;
18455;SDS011;9357;49.900;8.208;2024-02-14T04:16:14;4.28;;;3.40;;
18455;SDS011;9357;49.900;8.208;2024-02-14T04:17:47;5.32;;;3.10;;
18455;SDS011;9357;49.900;8.208;2024-02-14T04:19:18;4.70;;;3.00;;
18455;SDS011;9357;49.900;8.208;2024-02-14T04:20:51;4.60;;;2.60;;
18455;SDS011;9357;49.900;8.208;2024-02-14T04:22:23;3.33;;;2.53;;
18455;SDS011;9357;49.900;8.208;2024-02-14T04:23:56;7.50;;;2.65;;
18455;SDS011;9357;49.900;8.208;2024-02-14T04:25:28;4.15;;;2.55;;
18455;SDS011;9357;49.900;8.208;2024-02-14T04:27:03;2.83;;;2.38;;
18455;SDS011;9357;49.900;8.208;2024-02-14T04:28:38;5.50;;;2.40;;
18455;SDS011;9357;49.900;8.208;2024-02-14T04:30:11;5.82;;;2.58;;
18455;SDS011;9357;49.900;8.208;2024-02-14T04:31:45;5.78;;;2.50;;
18455;SDS011;9357;49.900;8.208;2024-02-14T04:33:17;4.25;;;2.47;;
18455;SDS011;9357;49.900;8.208;2024-02-14T04:34:49;4.28;;;2.70;;
18455;SDS011;9357;49.900;8.208;2024-02-14T04:36:21;3.80;;;2.20;;
18455;SDS011;9357;49.900;8.208;2024-02-14T04:37:55;5.13;;;2.38;;
18455;SDS011;9357;49.900;8.208;2024-02-14T04:39:27;4.65;;;2.60;;
18455;SDS011;9357;49.900;8.208;2024-02-14T04:40:59;4.63;;;2.50;;
18455;SDS011;9357;49.900;8.208;2024-02-14T04:42:33;3.65;;;2.60;;
18455;SDS011;9357;49.900;8.208;2024-02-14T04:44:06;5.80;;;2.88;;
18455;SDS011;9357;49.900;8.208;2024-02-14T04:45:38;5.60;;;2.40;;
18455;SDS011;9357;49.900;8.208;2024-02-14T04:47:10;3.22;;;2.20;;
18455;SDS011;9357;49.900;8.208;2024-02-14T04:48:42;4.63;;;2.70;;
18455;SDS011;9357;49.900;8.208;2024-02-14T04:50:15;5.20;;;2.70;;
18455;SDS011;9357;49.900;8.208;2024-02-14T04:51:47;3.67;;;2.47;;
18455;SDS011;9357;49.900;8.208;2024-02-14T04:53:20;3.20;;;2.35;;
18455;SDS011;9357;49.900;8.208;2024-02-14T04:54:52;6.50;;;2.45;;
18455;SDS011;9357;49.900;8.208;2024-02-14T04:56:25;5.40;;;2.22;;
18455;SDS011;9357;49.900;8.208;2024-02-14T04:57:59;6.22;;;2.40;;
18455;SDS011;9357;49.900;8.208;2024-02-14T04:59:31;3.30;;;2.10;;
18455;SDS011;9357;49.900;8.208;2024-02-14T05:01:04;4.25;;;2.10;;
18455;SDS011;9357;49.900;8.208;2024-02-14T05:02:38;3.72;;;2.10;;
18455;SDS011;9357;49.900;8.208;2024-02-14T05:04:10;2.67;;;2.22;;
18455;SDS011;9357;49.900;8.208;2024-02-14T05:05:44;4.97;;;2.60;;
18455;SDS011;9357;49.900;8.208;2024-02-14T05:07:16;3.83;;;2.10;;
18455;SDS011;9357;49.900;8.208;2024-02-14T05:08:48;4.57;;;2.28;;
18455;SDS011;9357;49.900;8.208;2024-02-14T05:10:22;5.65;;;2.50;;
18455;SDS011;9357;49.900;8.208;2024-02-14T05:11:55;3.78;;;2.40;;
18455;SDS011;9357;49.900;8.208;2024-02-14T05:13:28;5.53;;;2.15;;
18455;SDS011;9357;49.900;8.208;2024-02-14T05:15:02;4.60;;;2.72;;
18455;SDS011;9357;49.900;8.208;2024-02-14T05:16:35;5.55;;;2.35;;
18455;SDS011;9357;49.900;8.208;2024-02-14T05:18:08;7.90;;;2.55;;
18455;SDS011;9357;49.900;8.208;2024-02-14T05:19:41;5.22;;;2.50;;
18455;SDS011;9357;49.900;8.208;2024-02-14T05:21:14;4.55;;;2.38;;
18455;SDS011;9357;49.900;8.208;2024-02-14T05:22:46;2.88;;;2.17;;
18455;SDS011;9357;49.900;8.208;2024-02-14T05:24:19;3.97;;;2.17;;
18455;SDS011;9357;49.900;8.208;2024-02-14T05:25:51;2.50;;;2.30;;
18455;SDS011;9357;49.900;8.208;2024-02-14T05:27:24;4.47;;;2.13;;
18455;SDS011;9357;49.900;8.208;2024-02-14T05:28:58;4.07;;;2.17;;
18455;SDS011;9357;49.900;8.208;2024-02-14T05:30:32;4.22;;;2.40;;
18455;SDS011;9357;49.900;8.208;2024-02-14T05:32:04;6.53;;;2.35;;
18455;SDS011;9357;49.900;8.208;2024-02-14T05:33:40;5.03;;;2.20;;
18455;SDS011;9357;49.900;8.208;2024-02-14T05:35:12;4.32;;;2.28;;
18455;SDS011;9357;49.900;8.208;2024-02-14T05:36:45;5.13;;;2.40;;
18455;SDS011;9357;49.900;8.208;2024-02-14T05:38:17;5.70;;;2.50;;
18455;SDS011;9357;49.900;8.208;2024-02-14T05:39:51;5.47;;;2.25;;
18455;SDS011;9357;49.900;8.208;2024-02-14T05:41:22;4.43;;;2.20;;
18455;SDS011;9357;49.900;8.208;2024-02-14T05:42:56;6.00;;;2.30;;
18455;SDS011;9357;49.900;8.208;2024-02-14T05:44:29;5.80;;;2.72;;
18455;SDS011;9357;49.900;8.208;2024-02-14T05:46:02;6.28;;;3.65;;
18455;SDS011;9357;49.900;8.208;2024-02-14T05:47:34;13.32;;;6.18;;
18455;SDS011;9357;49.900;8.208;2024-02-14T05:49:07;11.43;;;5.00;;
18455;SDS011;9357;49.900;8.208;2024-02-14T05:50:40;7.93;;;3.70;;
18455;SDS011;9357;49.900;8.208;2024-02-14T05:52:13;11.05;;;5.40;;
18455;SDS011;9357;49.900;8.208;2024-02-14T05:53:47;11.23;;;5.57;;
18455;SDS011;9357;49.900;8.208;2024-02-14T05:55:19;7.32;;;3.75;;
18455;SDS011;9357;49.900;8.208;2024-02-14T05:56:52;5.15;;;2.95;;
18455;SDS011;9357;49.900;8.208;2024-02-14T05:58:24;4.93;;;2.60;;
18455;SDS011;9357;49.900;8.208;2024-02-14T06:00:01;4.90;;;2.40;;
18455;SDS011;9357;49.900;8.208;2024-02-14T06:01:34;5.43;;;2.53;;
18455;SDS011;9357;49.900;8.208;2024-02-14T06:03:07;5.63;;;2.47;;
18455;SDS011;9357;49.900;8.208;2024-02-14T06:04:39;4.93;;;2.78;;
18455;SDS011;9357;49.900;8.208;2024-02-14T06:06:12;4.05;;;2.75;;
18455;SDS011;9357;49.900;8.208;2024-02-14T06:07:44;4.68;;;2.40;;
18455;SDS011;9357;49.900;8.208;2024-02-14T06:09:18;8.80;;;2.72;;
18455;SDS011;9357;49.900;8.208;2024-02-14T06:10:51;6.32;;;2.50;;
18455;SDS011;9357;49.900;8.208;2024-02-14T06:12:22;4.88;;;2.55;;
18455;SDS011;9357;49.900;8.208;2024-02-14T06:13:55;5.63;;;2.40;;
18455;SDS011;9357;49.900;8.208;2024-02-14T06:15:28;3.28;;;2.40;;
18455;SDS011;9357;49.900;8.208;2024-02-14T06:17:01;5.72;;;2.88;;
18455;SDS011;9357;49.900;8.208;2024-02-14T06:18:33;3.33;;;2.67;;
18455;SDS011;9357;49.900;8.208;2024-02-14T06:20:07;3.83;;;2.97;;
18455;SDS011;9357;49.900;8.208;2024-02-14T06:21:40;3.25;;;2.95;;
18455;SDS011;9357;49.900;8.208;2024-02-14T06:23:13;4.82;;;3.30;;
18455;SDS011;9357;49.900;8.208;2024-02-14T06:24:46;2.95;;;2.67;;
18455;SDS011;9357;49.900;8.208;2024-02-14T06:26:19;5.43;;;3.20;;
18455;SDS011;9357;49.900;8.208;2024-02-14T06:27:52;5.53;;;2.75;;
18455;SDS011;9357;49.900;8.208;2024-02-14T06:29:25;3.97;;;2.60;;
18455;SDS011;9357;49.900;8.208;2024-02-14T06:31:00;5.07;;;2.33;;
18455;SDS011;9357;49.900;8.208;2024-02-14T06:32:32;5.80;;;2.60;;
18455;SDS011;9357;49.900;8.208;2024-02-14T06:34:05;3.55;;;2.50;;
18455;SDS011;9357;49.900;8.208;2024-02-14T06:35:38;4.32;;;2.50;;
18455;SDS011;9357;49.900;8.208;2024-02-14T06:37:11;5.15;;;2.63;;
18455;SDS011;9357;49.900;8.208;2024-02-14T06:38:43;4.97;;;2.60;;
18455;SDS011;9357;49.900;8.208;2024-02-14T06:40:17;8.38;;;2.83;;
18455;SDS011;9357;49.900;8.208;2024-02-14T06:41:49;4.68;;;2.72;;
18455;SDS011;9357;49.900;8.208;2024-02-14T06:43:22;2.85;;;2.15;;
18455;SDS011;9357;49.900;8.208;2024-02-14T06:44:54;5.97;;;2.45;;
18455;SDS011;9357;49.900;8.208;2024-02-14T06:46:29;3.88;;;2.20;;
18455;SDS011;9357;49.900;8.208;2024-02-14T06:48:01;5.43;;;2.47;;
18455;SDS011;9357;49.900;8.208;2024-02-14T06:49:34;6.85;;;2.80;;
18455;SDS011;9357;49.900;8.208;2024-02-14T06:51:06;4.80;;;2.65;;
18455;SDS011;9357;49.900;8.208;2024-02-14T06:52:40;3.85;;;2.33;;
18455;SDS011;9357;49.900;8.208;2024-02-14T06:54:11;3.87;;;2.30;;
18455;SDS011;9357;49.900;8.208;2024-02-14T06:55:44;4.03;;;2.43;;
18455;SDS011;9357;49.900;8.208;2024-02-14T06:57:18;4.30;;;2.47;;
18455;SDS011;9357;49.900;8.208;2024-02-14T06:58:50;3.45;;;2.33;;
18455;SDS011;9357;49.900;8.208;2024-02-14T07:00:25;6.18;;;2.50;;
18455;SDS011;9357;49.900;8.208;2024-02-14T07:02:01;4.20;;;2.33;;
18455;SDS011;9357;49.900;8.208;2024-02-14T07:03:44;7.22;;;2.50;;
18455;SDS011;9357;49.900;8.208;2024-02-14T07:05:17;5.07;;;2.60;;
18455;SDS011;9357;49.900;8.208;2024-02-14T07:06:49;3.85;;;2.35;;
18455;SDS011;9357;49.900;8.208;2024-02-14T07:08:23;3.63;;;2.42;;
18455;SDS011;9357;49.900;8.208;2024-02-14T07:11:49;5.10;;;2.40;;
18455;SDS011;9357;49.900;8.208;2024-02-14T07:13:23;2.58;;;2.30;;
18455;SDS011;9357;49.900;8.208;2024-02-14T07:14:56;3.92;;;2.47;;
18455;SDS011;9357;49.900;8.208;2024-02-14T07:16:28;3.25;;;2.03;;
18455;SDS011;9357;49.900;8.208;2024-02-14T07:18:03;5.75;;;2.42;;
18455;SDS011;9357;49.900;8.208;2024-02-14T07:19:35;3.63;;;2.50;;
18455;SDS011;9357;49.900;8.208;2024-02-14T07:21:10;3.63;;;2.30;;
18455;SDS011;9357;49.900;8.208;2024-02-14T07:22:42;3.63;;;2.30;;
18455;SDS011;9357;49.900;8.208;2024-02-14T07:24:17;3.60;;;2.20;;
18455;SDS011;9357;49.900;8.208;2024-02-14T07:25:49;3.90;;;2.20;;
18455;SDS011;9357;49.900;8.208;2024-02-14T07:27:22;4.57;;;2.47;;
18455;SDS011;9357;49.900;8.208;2024-02-14T07:28:56;5.28;;;2.58;;
18455;SDS011;9357;49.900;8.208;2024-02-14T07:30:29;3.83;;;2.30;;
18455;SDS011;9357;49.900;8.208;2024-02-14T07:32:01;3.90;;;2.50;;
18455;SDS011;9357;49.900;8.208;2024-02-14T07:33:36;5.05;;;2.80;;
18455;SDS011;9357;49.900;8.208;2024-02-14T07:35:08;4.18;;;2.00;;
18455;SDS011;9357;49.900;8.208;2024-02-14T07:36:41;4.10;;;2.47;;
18455;SDS011;9357;49.900;8.208;2024-02-14T07:38:17;3.13;;;2.30;;
18455;SDS011;9357;49.900;8.208;2024-02-14T07:39:50;5.78;;;2.28;;
18455;SDS011;9357;49.900;8.208;2024-02-14T07:41:22;3.97;;;2.50;;
18455;SDS011;9357;49.900;8.208;2024-02-14T07:42:55;2.92;;;2.10;;
18455;SDS011;9357;49.900;8.208;2024-02-14T07:44:27;2.95;;;2.22;;
18455;SDS011;9357;49.900;8.208;2024-02-14T07:45:59;3.72;;;2.60;;
18455;SDS011;9357;49.900;8.208;2024-02-14T07:47:31;5.33;;;2.13;;
18455;SDS011;9357;49.900;8.208;2024-02-14T07:49:09;2.80;;;2.45;;
18455;SDS011;9357;49.900;8.208;2024-02-14T07:50:41;5.25;;;2.53;;
18455;SDS011;9357;49.900;8.208;2024-02-14T07:52:14;4.72;;;2.30;;
18455;SDS011;9357;49.900;8.208;2024-02-14T07:53:46;4.13;;;2.38;;
18455;SDS011;9357;49.900;8.208;2024-02-14T07:55:19;3.75;;;2.60;;
18455;SDS011;9357;49.900;8.208;2024-02-14T07:56:51;3.42;;;2.47;;
18455;SDS011;9357;49.900;8.208;2024-02-14T07:58:24;3.43;;;2.33;;
18455;SDS011;9357;49.900;8.208;2024-02-14T07:59:56;3.50;;;2.30;;
18455;SDS011;9357;49.900;8.208;2024-02-14T08:01:29;4.75;;;2.53;;
18455;SDS011;9357;49.900;8.208;2024-02-14T08:03:02;4.97;;;2.58;;
18455;SDS011;9357;49.900;8.208;2024-02-14T08:04:38;3.93;;;2.50;;
18455;SDS011;9357;49.900;8.208;2024-02-14T08:06:10;3.95;;;2.40;;
18455;SDS011;9357;49.900;8.208;2024-02-14T08:07:44;3.60;;;2.72;;
18455;SDS011;9357;49.900;8.208;2024-02-14T08:09:16;3.67;;;2.38;;
18455;SDS011;9357;49.900;8.208;2024-02-14T08:10:49;6.03;;;2.70;;
18455;SDS011;9357;49.900;8.208;2024-02-14T08:12:21;3.90;;;2.37;;
18455;SDS011;9357;49.900;8.208;2024-02-14T08:13:59;3.97;;;2.60;;
18455;SDS011;9357;49.900;8.208;2024-02-14T08:15:31;3.63;;;2.38;;
18455;SDS011;9357;49.900;8.208;2024-02-14T08:17:04;4.03;;;2.70;;
18455;SDS011;9357;49.900;8.208;2024-02-14T08:18:36;3.20;;;2.15;;
18455;SDS011;9357;49.900;8.208;2024-02-14T08:20:11;4.00;;;2.58;;
18455;SDS011;9357;49.900;8.208;2024-02-14T08:21:43;5.32;;;2.65;;
18455;SDS011;9357;49.900;8.208;2024-02-14T08:23:16;3.40;;;2.53;;
18455;SDS011;9357;49.900;8.208;2024-02-14T08:24:49;3.25;;;2.38;;
18455;SDS011;9357;49.900;8.208;2024-02-14T08:26:21;3.23;;;2.33;;
18455;SDS011;9357;49.900;8.208;2024-02-14T08:27:55;4.30;;;2.40;;
18455;SDS011;9357;49.900;8.208;2024-02-14T08:29:28;4.70;;;2.60;;
18455;SDS011;9357;49.900;8.208;2024-02-14T08:31:02;4.93;;;2.30;;
18455;SDS011;9357;49.900;8.208;2024-02-14T08:32:34;5.20;;;2.75;;
18455;SDS011;9357;49.900;8.208;2024-02-14T08:34:07;3.95;;;2.53;;
18455;SDS011;9357;49.900;8.208;2024-02-14T08:35:42;4.53;;;2.60;;
18455;SDS011;9357;49.900;8.208;2024-02-14T08:37:15;4.37;;;2.90;;
18455;SDS011;9357;49.900;8.208;2024-02-14T08:38:48;5.23;;;2.53;;
18455;SDS011;9357;49.900;8.208;2024-02-14T08:40:20;5.25;;;2.97;;
18455;SDS011;9357;49.900;8.208;2024-02-14T08:41:56;4.27;;;2.83;;
18455;SDS011;9357;49.900;8.208;2024-02-14T08:43:29;4.93;;;2.73;;
18455;SDS011;9357;49.900;8.208;2024-02-14T08:45:01;5.33;;;2.70;;
18455;SDS011;9357;49.900;8.208;2024-02-14T08:46:34;4.67;;;2.67;;
18455;SDS011;9357;49.900;8.208;2024-02-14T08:48:06;6.00;;;3.33;;
18455;SDS011;9357;49.900;8.208;2024-02-14T08:49:40;5.17;;;2.93;;
18455;SDS011;9357;49.900;8.208;2024-02-14T08:51:15;4.73;;;2.97;;
18455;SDS011;9357;49.900;8.208;2024-02-14T08:52:52;5.15;;;2.92;;
18455;SDS011;9357;49.900;8.208;2024-02-14T08:54:24;6.05;;;3.13;;
18455;SDS011;9357;49.900;8.208;2024-02-14T08:55:59;6.17;;;3.40;;
18455;SDS011;9357;49.900;8.208;2024-02-14T08:57:34;6.47;;;3.50;;
18455;SDS011;9357;49.900;8.208;2024-02-14T08:59:08;5.53;;;3.45;;
18455;SDS011;9357;49.900;8.208;2024-02-14T09:00:42;5.53;;;3.40;;
18455;SDS011;9357;49.900;8.208;2024-02-14T09:02:29;4.77;;;3.00;;
18455;SDS011;9357;49.900;8.208;2024-02-14T09:04:02;5.45;;;3.33;;
18455;SDS011;9357;49.900;8.208;2024-02-14T09:05:36;5.00;;;3.53;;
18455;SDS011;9357;49.900;8.208;2024-02-14T09:07:13;4.87;;;3.23;;
18455;SDS011;9357;49.900;8.208;2024-02-14T09:08:52;5.73;;;3.30;;
18455;SDS011;9357;49.900;8.208;2024-02-14T09:10:28;4.05;;;3.20;;
18455;SDS011;9357;49.900;8.208;2024-02-14T09:12:05;6.03;;;3.07;;
18455;SDS011;9357;49.900;8.208;2024-02-14T09:13:48;4.80;;;3.00;;
18455;SDS011;9357;49.900;8.208;2024-02-14T09:15:28;4.93;;;3.35;;
18455;SDS011;9357;49.900;8.208;2024-02-14T09:17:06;5.67;;;3.03;;
18455;SDS011;9357;49.900;8.208;2024-02-14T09:18:40;6.10;;;3.13;;
18455;SDS011;9357;49.900;8.208;2024-02-14T09:20:32;3.90;;;2.90;;
18455;SDS011;9357;49.900;8.208;2024-02-14T09:22:10;3.87;;;3.00;;
18455;SDS011;9357;49.900;8.208;2024-02-14T09:23:54;5.53;;;3.58;;
18455;SDS011;9357;49.900;8.208;2024-02-14T09:25:32;7.50;;;3.80;;
18455;SDS011;9357;49.900;8.208;2024-02-14T09:27:08;5.87;;;3.57;;
18455;SDS011;9357;49.900;8.208;2024-02-14T09:28:45;5.93;;;3.50;;
18455;SDS011;9357;49.900;8.208;2024-02-14T09:30:19;5.23;;;2.93;;
18455;SDS011;9357;49.900;8.208;2024-02-14T09:32:10;5.57;;;2.83;;